sensor_id;sensor_type;location;lat;lon;timestamp;P1;durP1;ratioP1;P2;durP2;ratioP2
4642;SDS011;2334;48.710;9.622;2023-02-15T00:01:31;11.77;;;6.67;;
4642;SDS011;2334;48.710;9.622;2023-02-15T00:03:58;16.80;;;7.80;;
4642;SDS011;2334;48.710;9.622;2023-02-15T00:06:25;11.90;;;6.37;;
4642;SDS011;2334;48.710;9.622;2023-02-15T00:08:53;11.63;;;7.20;;
4642;SDS011;2334;48.710;9.622;2023-02-15T00:11:21;18.57;;;7.70;;
4642;SDS011;2334;48.710;9.622;2023-02-15T00:14:03;13.90;;;7.57;;
4642;SDS011;2334;48.710;9.622;2023-02-15T00:16:30;17.70;;;7.70;;
4642;SDS011;2334;48.710;9.622;2023-02-15T00:18:57;13.70;;;6.90;;
4642;SDS011;2334;48.710;9.622;2023-02-15T00:21:26;13.13;;;7.37;;
4642;SDS011;2334;48.710;9.622;2023-02-15T00:23:53;14.97;;;7.50;;
4642;SDS011;2334;48.710;9.622;2023-02-15T00:26:22;9.13;;;5.70;;
4642;SDS011;2334;48.710;9.622;2023-02-15T00:28:48;13.00;;;6.77;;
4642;SDS011;2334;48.710;9.622;2023-02-15T00:31:15;13.70;;;6.20;;
4642;SDS011;2334;48.710;9.622;2023-02-15T00:33:42;14.20;;;7.60;;
4642;SDS011;2334;48.710;9.622;2023-02-15T00:36:10;9.90;;;5.90;;
4642;SDS011;2334;48.710;9.622;2023-02-15T00:38:37;19.20;;;8.87;;
4642;SDS011;2334;48.710;9.622;2023-02-15T00:41:05;9.60;;;6.27;;
4642;SDS011;2334;48.710;9.622;2023-02-15T00:43:35;19.33;;;9.10;;
4642;SDS011;2334;48.710;9.622;2023-02-15T00:46:02;16.50;;;8.87;;
4642;SDS011;2334;48.710;9.622;2023-02-15T00:48:30;13.87;;;7.07;;
4642;SDS011;2334;48.710;9.622;2023-02-15T00:50:58;14.53;;;7.70;;
4642;SDS011;2334;48.710;9.622;2023-02-15T00:53:26;13.87;;;7.43;;
4642;SDS011;2334;48.710;9.622;2023-02-15T00:55:53;15.93;;;8.97;;
4642;SDS011;2334;48.710;9.622;2023-02-15T00:58:20;8.43;;;5.90;;
4642;SDS011;2334;48.710;9.622;2023-02-15T01:00:48;10.77;;;6.90;;
4642;SDS011;2334;48.710;9.622;2023-02-15T01:03:16;13.20;;;5.97;;
4642;SDS011;2334;48.710;9.622;2023-02-15T01:05:44;16.37;;;7.40;;
4642;SDS011;2334;48.710;9.622;2023-02-15T01:08:12;14.80;;;8.07;;
4642;SDS011;2334;48.710;9.622;2023-02-15T01:10:42;13.43;;;7.03;;
4642;SDS011;2334;48.710;9.622;2023-02-15T01:13:12;13.50;;;7.87;;
4642;SDS011;2334;48.710;9.622;2023-02-15T01:15:39;21.80;;;8.60;;
4642;SDS011;2334;48.710;9.622;2023-02-15T01:18:08;17.70;;;8.40;;
4642;SDS011;2334;48.710;9.622;2023-02-15T01:20:36;11.50;;;7.60;;
4642;SDS011;2334;48.710;9.622;2023-02-15T01:23:06;20.13;;;8.50;;
4642;SDS011;2334;48.710;9.622;2023-02-15T01:25:33;17.20;;;8.17;;
4642;SDS011;2334;48.710;9.622;2023-02-15T01:28:01;20.00;;;9.37;;
4642;SDS011;2334;48.710;9.622;2023-02-15T01:30:29;18.67;;;9.33;;
4642;SDS011;2334;48.710;9.622;2023-02-15T01:32:56;17.97;;;7.87;;
4642;SDS011;2334;48.710;9.622;2023-02-15T01:35:24;20.93;;;8.50;;
4642;SDS011;2334;48.710;9.622;2023-02-15T01:37:51;15.60;;;6.80;;
4642;SDS011;2334;48.710;9.622;2023-02-15T01:40:18;18.97;;;9.00;;
4642;SDS011;2334;48.710;9.622;2023-02-15T01:42:45;21.77;;;8.10;;
4642;SDS011;2334;48.710;9.622;2023-02-15T01:45:18;14.27;;;8.07;;
4642;SDS011;2334;48.710;9.622;2023-02-15T01:47:50;14.73;;;8.83;;
4642;SDS011;2334;48.710;9.622;2023-02-15T01:50:21;18.53;;;8.63;;
4642;SDS011;2334;48.710;9.622;2023-02-15T01:52:55;14.43;;;8.00;;
4642;SDS011;2334;48.710;9.622;2023-02-15T01:55:27;12.03;;;7.57;;
4642;SDS011;2334;48.710;9.622;2023-02-15T01:57:57;16.40;;;8.37;;
4642;SDS011;2334;48.710;9.622;2023-02-15T02:00:25;20.90;;;9.43;;
4642;SDS011;2334;48.710;9.622;2023-02-15T02:02:53;16.00;;;8.93;;
4642;SDS011;2334;48.710;9.622;2023-02-15T02:05:23;17.53;;;9.23;;
4642;SDS011;2334;48.710;9.622;2023-02-15T02:07:52;15.77;;;7.93;;
4642;SDS011;2334;48.710;9.622;2023-02-15T02:10:23;16.67;;;8.40;;
4642;SDS011;2334;48.710;9.622;2023-02-15T02:12:57;12.60;;;7.20;;
4642;SDS011;2334;48.710;9.622;2023-02-15T02:15:27;11.67;;;7.20;;
4642;SDS011;2334;48.710;9.622;2023-02-15T02:18:03;17.80;;;8.70;;
4642;SDS011;2334;48.710;9.622;2023-02-15T02:20:43;20.03;;;7.30;;
4642;SDS011;2334;48.710;9.622;2023-02-15T02:23:36;12.97;;;7.57;;
4642;SDS011;2334;48.710;9.622;2023-02-15T02:29:24;14.93;;;7.03;;
4642;SDS011;2334;48.710;9.622;2023-02-15T02:32:09;14.60;;;8.20;;
4642;SDS011;2334;48.710;9.622;2023-02-15T02:34:57;18.30;;;8.63;;
4642;SDS011;2334;48.710;9.622;2023-02-15T02:37:28;12.00;;;6.83;;
4642;SDS011;2334;48.710;9.622;2023-02-15T02:40:03;12.90;;;7.63;;
4642;SDS011;2334;48.710;9.622;2023-02-15T02:42:38;11.37;;;6.70;;
4642;SDS011;2334;48.710;9.622;2023-02-15T02:45:08;15.73;;;7.33;;
4642;SDS011;2334;48.710;9.622;2023-02-15T02:47:38;15.50;;;6.60;;
4642;SDS011;2334;48.710;9.622;2023-02-15T02:50:12;12.80;;;6.67;;
4642;SDS011;2334;48.710;9.622;2023-02-15T02:52:41;13.20;;;6.77;;
4642;SDS011;2334;48.710;9.622;2023-02-15T02:55:10;15.10;;;6.90;;
4642;SDS011;2334;48.710;9.622;2023-02-15T02:57:43;10.10;;;6.53;;
4642;SDS011;2334;48.710;9.622;2023-02-15T03:00:16;13.17;;;6.40;;
4642;SDS011;2334;48.710;9.622;2023-02-15T03:02:44;10.53;;;5.27;;
4642;SDS011;2334;48.710;9.622;2023-02-15T03:05:17;11.97;;;6.60;;
4642;SDS011;2334;48.710;9.622;2023-02-15T03:07:48;14.60;;;6.03;;
4642;SDS011;2334;48.710;9.622;2023-02-15T03:10:18;15.60;;;7.47;;
4642;SDS011;2334;48.710;9.622;2023-02-15T03:12:48;13.80;;;7.10;;
4642;SDS011;2334;48.710;9.622;2023-02-15T03:15:16;9.63;;;6.23;;
4642;SDS011;2334;48.710;9.622;2023-02-15T03:17:46;12.73;;;6.70;;
4642;SDS011;2334;48.710;9.622;2023-02-15T03:20:20;13.07;;;7.20;;
4642;SDS011;2334;48.710;9.622;2023-02-15T03:22:51;21.90;;;8.47;;
4642;SDS011;2334;48.710;9.622;2023-02-15T03:25:23;15.60;;;7.60;;
4642;SDS011;2334;48.710;9.622;2023-02-15T03:27:54;16.30;;;6.77;;
4642;SDS011;2334;48.710;9.622;2023-02-15T03:30:25;14.50;;;7.63;;
4642;SDS011;2334;48.710;9.622;2023-02-15T03:32:54;8.50;;;6.10;;
4642;SDS011;2334;48.710;9.622;2023-02-15T03:35:27;13.70;;;6.13;;
4642;SDS011;2334;48.710;9.622;2023-02-15T03:38:00;12.67;;;7.50;;
4642;SDS011;2334;48.710;9.622;2023-02-15T03:40:30;14.60;;;7.07;;
4642;SDS011;2334;48.710;9.622;2023-02-15T03:43:19;12.03;;;6.87;;
4642;SDS011;2334;48.710;9.622;2023-02-15T03:45:51;19.90;;;8.23;;
4642;SDS011;2334;48.710;9.622;2023-02-15T03:48:23;14.93;;;8.57;;
4642;SDS011;2334;48.710;9.622;2023-02-15T03:50:54;12.63;;;7.43;;
4642;SDS011;2334;48.710;9.622;2023-02-15T03:53:41;14.47;;;9.10;;
4642;SDS011;2334;48.710;9.622;2023-02-15T03:56:11;21.60;;;8.53;;
4642;SDS011;2334;48.710;9.622;2023-02-15T03:58:38;21.33;;;10.60;;
4642;SDS011;2334;48.710;9.622;2023-02-15T04:01:24;16.17;;;10.00;;
4642;SDS011;2334;48.710;9.622;2023-02-15T04:04:23;17.53;;;8.20;;
4642;SDS011;2334;48.710;9.622;2023-02-15T04:06:53;17.97;;;7.93;;
4642;SDS011;2334;48.710;9.622;2023-02-15T04:09:20;21.97;;;10.00;;
4642;SDS011;2334;48.710;9.622;2023-02-15T04:12:05;15.90;;;8.77;;
4642;SDS011;2334;48.710;9.622;2023-02-15T04:14:32;14.73;;;8.63;;
4642;SDS011;2334;48.710;9.622;2023-02-15T04:17:16;19.40;;;8.97;;
4642;SDS011;2334;48.710;9.622;2023-02-15T04:19:45;18.47;;;8.90;;
4642;SDS011;2334;48.710;9.622;2023-02-15T04:22:31;17.07;;;8.60;;
4642;SDS011;2334;48.710;9.622;2023-02-15T04:25:15;12.50;;;7.13;;
4642;SDS011;2334;48.710;9.622;2023-02-15T04:27:43;14.20;;;7.30;;
4642;SDS011;2334;48.710;9.622;2023-02-15T04:30:11;17.47;;;7.93;;
4642;SDS011;2334;48.710;9.622;2023-02-15T04:32:39;15.70;;;7.77;;
4642;SDS011;2334;48.710;9.622;2023-02-15T04:35:07;13.63;;;7.57;;
4642;SDS011;2334;48.710;9.622;2023-02-15T04:37:35;14.33;;;7.77;;
4642;SDS011;2334;48.710;9.622;2023-02-15T04:40:03;14.27;;;8.20;;
4642;SDS011;2334;48.710;9.622;2023-02-15T04:42:31;13.93;;;6.87;;
4642;SDS011;2334;48.710;9.622;2023-02-15T04:44:58;18.53;;;7.93;;
4642;SDS011;2334;48.710;9.622;2023-02-15T04:47:25;11.90;;;6.90;;
4642;SDS011;2334;48.710;9.622;2023-02-15T04:49:52;18.10;;;7.93;;
4642;SDS011;2334;48.710;9.622;2023-02-15T04:52:19;17.40;;;7.50;;
4642;SDS011;2334;48.710;9.622;2023-02-15T04:54:47;14.50;;;8.00;;
4642;SDS011;2334;48.710;9.622;2023-02-15T04:57:14;18.27;;;9.37;;
4642;SDS011;2334;48.710;9.622;2023-02-15T04:59:41;17.60;;;8.93;;
4642;SDS011;2334;48.710;9.622;2023-02-15T05:02:08;18.30;;;9.07;;
4642;SDS011;2334;48.710;9.622;2023-02-15T05:04:34;18.17;;;7.23;;
4642;SDS011;2334;48.710;9.622;2023-02-15T05:07:01;14.40;;;7.60;;
4642;SDS011;2334;48.710;9.622;2023-02-15T05:09:28;25.73;;;10.03;;
4642;SDS011;2334;48.710;9.622;2023-02-15T05:11:56;20.00;;;9.80;;
4642;SDS011;2334;48.710;9.622;2023-02-15T05:14:23;21.87;;;10.00;;
4642;SDS011;2334;48.710;9.622;2023-02-15T05:16:50;13.27;;;9.83;;
4642;SDS011;2334;48.710;9.622;2023-02-15T05:19:18;25.67;;;11.23;;
4642;SDS011;2334;48.710;9.622;2023-02-15T05:21:45;27.60;;;13.30;;
4642;SDS011;2334;48.710;9.622;2023-02-15T05:24:12;22.77;;;10.13;;
4642;SDS011;2334;48.710;9.622;2023-02-15T05:26:58;23.67;;;11.83;;
4642;SDS011;2334;48.710;9.622;2023-02-15T05:29:42;20.73;;;10.57;;
4642;SDS011;2334;48.710;9.622;2023-02-15T05:32:09;22.93;;;9.67;;
4642;SDS011;2334;48.710;9.622;2023-02-15T05:34:39;17.60;;;9.87;;
4642;SDS011;2334;48.710;9.622;2023-02-15T05:37:06;19.60;;;9.33;;
4642;SDS011;2334;48.710;9.622;2023-02-15T05:39:33;22.70;;;10.00;;
4642;SDS011;2334;48.710;9.622;2023-02-15T05:42:02;22.37;;;9.40;;
4642;SDS011;2334;48.710;9.622;2023-02-15T05:44:29;26.80;;;9.40;;
4642;SDS011;2334;48.710;9.622;2023-02-15T05:46:56;20.97;;;9.73;;
4642;SDS011;2334;48.710;9.622;2023-02-15T05:49:22;17.30;;;9.00;;
4642;SDS011;2334;48.710;9.622;2023-02-15T05:51:49;20.93;;;8.03;;
4642;SDS011;2334;48.710;9.622;2023-02-15T05:54:16;20.63;;;9.77;;
4642;SDS011;2334;48.710;9.622;2023-02-15T05:56:43;24.00;;;10.40;;
4642;SDS011;2334;48.710;9.622;2023-02-15T05:59:11;20.13;;;8.80;;
4642;SDS011;2334;48.710;9.622;2023-02-15T06:01:38;24.77;;;9.17;;
4642;SDS011;2334;48.710;9.622;2023-02-15T06:04:05;20.30;;;10.50;;
4642;SDS011;2334;48.710;9.622;2023-02-15T06:06:32;15.50;;;8.37;;
4642;SDS011;2334;48.710;9.622;2023-02-15T06:08:59;19.00;;;8.23;;
4642;SDS011;2334;48.710;9.622;2023-02-15T06:11:26;14.80;;;8.33;;
4642;SDS011;2334;48.710;9.622;2023-02-15T06:13:53;13.77;;;7.40;;
4642;SDS011;2334;48.710;9.622;2023-02-15T06:16:21;14.93;;;7.90;;
4642;SDS011;2334;48.710;9.622;2023-02-15T06:18:48;18.33;;;8.50;;
4642;SDS011;2334;48.710;9.622;2023-02-15T06:21:15;19.00;;;10.00;;
4642;SDS011;2334;48.710;9.622;2023-02-15T06:23:42;19.30;;;8.73;;
4642;SDS011;2334;48.710;9.622;2023-02-15T06:26:09;21.30;;;8.80;;
4642;SDS011;2334;48.710;9.622;2023-02-15T06:28:36;25.33;;;10.53;;
4642;SDS011;2334;48.710;9.622;2023-02-15T06:31:03;38.27;;;14.10;;
4642;SDS011;2334;48.710;9.622;2023-02-15T06:33:31;38.33;;;13.70;;
4642;SDS011;2334;48.710;9.622;2023-02-15T06:35:59;38.97;;;17.50;;
4642;SDS011;2334;48.710;9.622;2023-02-15T06:38:26;30.90;;;15.37;;
4642;SDS011;2334;48.710;9.622;2023-02-15T06:40:53;31.20;;;13.87;;
4642;SDS011;2334;48.710;9.622;2023-02-15T06:43:20;22.27;;;10.50;;
4642;SDS011;2334;48.710;9.622;2023-02-15T06:45:47;25.43;;;12.33;;
4642;SDS011;2334;48.710;9.622;2023-02-15T06:48:14;37.13;;;12.33;;
4642;SDS011;2334;48.710;9.622;2023-02-15T06:50:42;29.63;;;12.27;;
4642;SDS011;2334;48.710;9.622;2023-02-15T06:53:09;25.63;;;11.03;;
4642;SDS011;2334;48.710;9.622;2023-02-15T06:55:36;25.10;;;13.20;;
4642;SDS011;2334;48.710;9.622;2023-02-15T06:58:03;27.57;;;12.63;;
4642;SDS011;2334;48.710;9.622;2023-02-15T07:00:30;26.63;;;11.97;;
4642;SDS011;2334;48.710;9.622;2023-02-15T07:02:57;22.70;;;11.20;;
4642;SDS011;2334;48.710;9.622;2023-02-15T07:05:24;24.13;;;10.97;;
4642;SDS011;2334;48.710;9.622;2023-02-15T07:07:57;17.53;;;10.10;;
4642;SDS011;2334;48.710;9.622;2023-02-15T07:10:24;22.10;;;10.20;;
4642;SDS011;2334;48.710;9.622;2023-02-15T07:12:51;18.37;;;10.00;;
4642;SDS011;2334;48.710;9.622;2023-02-15T07:15:17;22.13;;;10.47;;
4642;SDS011;2334;48.710;9.622;2023-02-15T07:17:45;22.60;;;11.27;;
4642;SDS011;2334;48.710;9.622;2023-02-15T07:20:14;26.67;;;10.93;;
4642;SDS011;2334;48.710;9.622;2023-02-15T07:22:42;27.80;;;12.23;;
4642;SDS011;2334;48.710;9.622;2023-02-15T07:25:12;23.30;;;9.93;;
4642;SDS011;2334;48.710;9.622;2023-02-15T07:27:39;20.23;;;10.97;;
4642;SDS011;2334;48.710;9.622;2023-02-15T07:30:07;20.23;;;11.77;;
4642;SDS011;2334;48.710;9.622;2023-02-15T07:32:35;27.00;;;10.47;;
4642;SDS011;2334;48.710;9.622;2023-02-15T07:35:22;21.27;;;9.63;;
4642;SDS011;2334;48.710;9.622;2023-02-15T07:37:49;21.67;;;11.47;;
4642;SDS011;2334;48.710;9.622;2023-02-15T07:40:19;20.00;;;10.30;;
4642;SDS011;2334;48.710;9.622;2023-02-15T07:42:48;14.50;;;8.97;;
4642;SDS011;2334;48.710;9.622;2023-02-15T07:45:16;18.70;;;9.93;;
4642;SDS011;2334;48.710;9.622;2023-02-15T07:47:43;15.33;;;8.33;;
4642;SDS011;2334;48.710;9.622;2023-02-15T07:50:10;17.63;;;8.73;;
4642;SDS011;2334;48.710;9.622;2023-02-15T07:52:37;20.57;;;8.80;;
4642;SDS011;2334;48.710;9.622;2023-02-15T07:55:04;20.27;;;10.57;;
4642;SDS011;2334;48.710;9.622;2023-02-15T07:57:33;22.80;;;10.47;;
4642;SDS011;2334;48.710;9.622;2023-02-15T07:59:59;14.63;;;7.90;;
4642;SDS011;2334;48.710;9.622;2023-02-15T08:02:26;17.20;;;8.53;;
4642;SDS011;2334;48.710;9.622;2023-02-15T08:04:55;30.93;;;10.40;;
4642;SDS011;2334;48.710;9.622;2023-02-15T08:07:22;25.80;;;10.17;;
4642;SDS011;2334;48.710;9.622;2023-02-15T08:09:48;19.73;;;10.00;;
4642;SDS011;2334;48.710;9.622;2023-02-15T08:12:15;26.67;;;12.40;;
4642;SDS011;2334;48.710;9.622;2023-02-15T08:14:44;29.57;;;11.93;;
4642;SDS011;2334;48.710;9.622;2023-02-15T08:17:10;24.27;;;12.40;;
4642;SDS011;2334;48.710;9.622;2023-02-15T08:19:37;28.90;;;11.87;;
4642;SDS011;2334;48.710;9.622;2023-02-15T08:22:05;22.77;;;11.23;;
4642;SDS011;2334;48.710;9.622;2023-02-15T08:24:35;28.63;;;12.90;;
4642;SDS011;2334;48.710;9.622;2023-02-15T08:27:03;26.33;;;12.33;;
4642;SDS011;2334;48.710;9.622;2023-02-15T08:29:32;28.10;;;11.90;;
4642;SDS011;2334;48.710;9.622;2023-02-15T08:32:02;26.73;;;12.40;;
4642;SDS011;2334;48.710;9.622;2023-02-15T08:34:31;26.60;;;12.43;;
4642;SDS011;2334;48.710;9.622;2023-02-15T08:37:00;26.23;;;12.10;;
4642;SDS011;2334;48.710;9.622;2023-02-15T08:39:27;24.13;;;10.73;;
4642;SDS011;2334;48.710;9.622;2023-02-15T08:41:54;20.73;;;11.33;;
4642;SDS011;2334;48.710;9.622;2023-02-15T08:44:21;19.93;;;9.93;;
4642;SDS011;2334;48.710;9.622;2023-02-15T08:46:48;21.77;;;9.67;;
4642;SDS011;2334;48.710;9.622;2023-02-15T08:49:17;16.43;;;9.70;;
4642;SDS011;2334;48.710;9.622;2023-02-15T08:51:46;26.60;;;11.00;;
4642;SDS011;2334;48.710;9.622;2023-02-15T08:54:14;22.13;;;10.50;;
4642;SDS011;2334;48.710;9.622;2023-02-15T08:56:42;21.27;;;9.80;;
4642;SDS011;2334;48.710;9.622;2023-02-15T08:59:11;17.93;;;9.83;;
4642;SDS011;2334;48.710;9.622;2023-02-15T09:01:40;16.60;;;9.17;;
4642;SDS011;2334;48.710;9.622;2023-02-15T09:04:07;16.27;;;9.13;;
4642;SDS011;2334;48.710;9.622;2023-02-15T09:06:37;18.43;;;9.97;;
4642;SDS011;2334;48.710;9.622;2023-02-15T09:09:04;22.83;;;11.00;;
4642;SDS011;2334;48.710;9.622;2023-02-15T09:11:34;22.37;;;9.73;;
4642;SDS011;2334;48.710;9.622;2023-02-15T09:14:03;25.07;;;9.90;;
4642;SDS011;2334;48.710;9.622;2023-02-15T09:16:33;18.07;;;9.23;;
4642;SDS011;2334;48.710;9.622;2023-02-15T09:19:01;18.40;;;9.80;;
4642;SDS011;2334;48.710;9.622;2023-02-15T09:21:30;20.00;;;9.33;;
4642;SDS011;2334;48.710;9.622;2023-02-15T09:24:01;15.37;;;8.43;;
4642;SDS011;2334;48.710;9.622;2023-02-15T09:26:31;15.30;;;9.73;;
4642;SDS011;2334;48.710;9.622;2023-02-15T09:29:00;17.57;;;9.07;;
4642;SDS011;2334;48.710;9.622;2023-02-15T09:31:29;25.27;;;10.47;;
4642;SDS011;2334;48.710;9.622;2023-02-15T09:33:57;23.63;;;9.70;;
4642;SDS011;2334;48.710;9.622;2023-02-15T09:36:26;19.77;;;10.13;;
4642;SDS011;2334;48.710;9.622;2023-02-15T09:38:55;19.33;;;9.20;;
4642;SDS011;2334;48.710;9.622;2023-02-15T09:44:30;17.90;;;9.10;;
4642;SDS011;2334;48.710;9.622;2023-02-15T09:47:13;17.10;;;9.00;;
4642;SDS011;2334;48.710;9.622;2023-02-15T09:50:01;31.87;;;10.90;;
4642;SDS011;2334;48.710;9.622;2023-02-15T09:52:39;21.00;;;10.83;;
4642;SDS011;2334;48.710;9.622;2023-02-15T09:55:24;18.80;;;9.20;;
4642;SDS011;2334;48.710;9.622;2023-02-15T09:58:03;17.03;;;8.73;;
4642;SDS011;2334;48.710;9.622;2023-02-15T10:00:40;19.60;;;10.40;;
4642;SDS011;2334;48.710;9.622;2023-02-15T10:03:19;21.33;;;10.07;;
4642;SDS011;2334;48.710;9.622;2023-02-15T10:06:04;23.97;;;9.83;;
4642;SDS011;2334;48.710;9.622;2023-02-15T10:08:54;18.53;;;9.67;;
4642;SDS011;2334;48.710;9.622;2023-02-15T10:11:38;27.47;;;9.90;;
4642;SDS011;2334;48.710;9.622;2023-02-15T10:14:21;22.70;;;10.63;;
4642;SDS011;2334;48.710;9.622;2023-02-15T10:17:10;21.10;;;9.00;;
4642;SDS011;2334;48.710;9.622;2023-02-15T10:19:49;19.20;;;11.03;;
4642;SDS011;2334;48.710;9.622;2023-02-15T10:22:25;19.90;;;9.10;;
4642;SDS011;2334;48.710;9.622;2023-02-15T10:25:07;18.97;;;9.70;;
4642;SDS011;2334;48.710;9.622;2023-02-15T10:27:47;14.80;;;9.17;;
4642;SDS011;2334;48.710;9.622;2023-02-15T10:30:15;16.07;;;9.40;;
4642;SDS011;2334;48.710;9.622;2023-02-15T10:32:49;24.83;;;11.17;;
4642;SDS011;2334;48.710;9.622;2023-02-15T10:35:25;18.50;;;11.10;;
4642;SDS011;2334;48.710;9.622;2023-02-15T10:38:01;20.33;;;10.97;;
4642;SDS011;2334;48.710;9.622;2023-02-15T10:40:48;17.50;;;10.60;;
4642;SDS011;2334;48.710;9.622;2023-02-15T10:43:30;20.47;;;10.80;;
4642;SDS011;2334;48.710;9.622;2023-02-15T10:46:17;19.67;;;10.63;;
4642;SDS011;2334;48.710;9.622;2023-02-15T10:49:05;24.10;;;11.87;;
4642;SDS011;2334;48.710;9.622;2023-02-15T10:51:52;18.20;;;9.93;;
4642;SDS011;2334;48.710;9.622;2023-02-15T10:54:29;20.73;;;11.00;;
4642;SDS011;2334;48.710;9.622;2023-02-15T10:57:03;18.37;;;10.30;;
4642;SDS011;2334;48.710;9.622;2023-02-15T10:59:38;22.80;;;11.00;;
4642;SDS011;2334;48.710;9.622;2023-02-15T11:02:33;19.60;;;9.10;;
4642;SDS011;2334;48.710;9.622;2023-02-15T11:05:31;19.90;;;9.67;;
4642;SDS011;2334;48.710;9.622;2023-02-15T11:08:08;20.20;;;10.53;;
4642;SDS011;2334;48.710;9.622;2023-02-15T11:10:38;20.20;;;10.10;;
4642;SDS011;2334;48.710;9.622;2023-02-15T11:13:09;15.70;;;9.23;;
4642;SDS011;2334;48.710;9.622;2023-02-15T11:15:39;20.80;;;10.67;;
4642;SDS011;2334;48.710;9.622;2023-02-15T11:18:11;15.73;;;10.07;;
4642;SDS011;2334;48.710;9.622;2023-02-15T11:20:45;17.87;;;10.07;;
4642;SDS011;2334;48.710;9.622;2023-02-15T11:23:18;23.90;;;10.00;;
4642;SDS011;2334;48.710;9.622;2023-02-15T11:25:51;17.10;;;9.17;;
4642;SDS011;2334;48.710;9.622;2023-02-15T11:28:23;18.60;;;9.00;;
4642;SDS011;2334;48.710;9.622;2023-02-15T11:30:55;22.63;;;10.03;;
4642;SDS011;2334;48.710;9.622;2023-02-15T11:33:25;15.80;;;9.57;;
4642;SDS011;2334;48.710;9.622;2023-02-15T11:35:57;17.70;;;10.17;;
4642;SDS011;2334;48.710;9.622;2023-02-15T11:38:29;19.13;;;10.67;;
4642;SDS011;2334;48.710;9.622;2023-02-15T11:40:59;17.67;;;9.23;;
4642;SDS011;2334;48.710;9.622;2023-02-15T11:43:31;16.80;;;8.57;;
4642;SDS011;2334;48.710;9.622;2023-02-15T11:46:02;19.63;;;9.87;;
4642;SDS011;2334;48.710;9.622;2023-02-15T11:48:30;15.40;;;8.87;;
4642;SDS011;2334;48.710;9.622;2023-02-15T11:50:59;19.90;;;9.83;;
4642;SDS011;2334;48.710;9.622;2023-02-15T11:53:28;14.40;;;9.33;;
4642;SDS011;2334;48.710;9.622;2023-02-15T11:55:59;18.63;;;10.30;;
4642;SDS011;2334;48.710;9.622;2023-02-15T11:58:30;15.40;;;9.27;;
4642;SDS011;2334;48.710;9.622;2023-02-15T12:01:08;20.47;;;10.10;;
4642;SDS011;2334;48.710;9.622;2023-02-15T12:03:43;16.17;;;8.80;;
4642;SDS011;2334;48.710;9.622;2023-02-15T12:06:16;21.73;;;9.80;;
4642;SDS011;2334;48.710;9.622;2023-02-15T12:08:49;14.30;;;8.40;;
4642;SDS011;2334;48.710;9.622;2023-02-15T12:11:22;21.10;;;9.00;;
4642;SDS011;2334;48.710;9.622;2023-02-15T12:13:56;23.90;;;9.87;;
4642;SDS011;2334;48.710;9.622;2023-02-15T12:16:24;17.27;;;9.53;;
4642;SDS011;2334;48.710;9.622;2023-02-15T12:18:53;16.90;;;9.30;;
4642;SDS011;2334;48.710;9.622;2023-02-15T12:21:27;17.50;;;9.10;;
4642;SDS011;2334;48.710;9.622;2023-02-15T12:23:57;15.80;;;9.67;;
4642;SDS011;2334;48.710;9.622;2023-02-15T12:26:30;15.90;;;9.57;;
4642;SDS011;2334;48.710;9.622;2023-02-15T12:28:58;16.57;;;8.77;;
4642;SDS011;2334;48.710;9.622;2023-02-15T12:31:28;23.03;;;9.87;;
4642;SDS011;2334;48.710;9.622;2023-02-15T12:33:59;15.13;;;8.97;;
4642;SDS011;2334;48.710;9.622;2023-02-15T12:36:30;18.70;;;9.63;;
4642;SDS011;2334;48.710;9.622;2023-02-15T12:39:19;21.90;;;9.73;;
4642;SDS011;2334;48.710;9.622;2023-02-15T12:41:58;18.00;;;8.73;;
4642;SDS011;2334;48.710;9.622;2023-02-15T12:44:29;15.27;;;8.33;;
4642;SDS011;2334;48.710;9.622;2023-02-15T12:46:58;12.67;;;7.10;;
4642;SDS011;2334;48.710;9.622;2023-02-15T12:49:27;26.27;;;7.33;;
4642;SDS011;2334;48.710;9.622;2023-02-15T12:51:56;14.03;;;8.07;;
4642;SDS011;2334;48.710;9.622;2023-02-15T12:54:35;16.77;;;7.30;;
4642;SDS011;2334;48.710;9.622;2023-02-15T12:57:22;14.27;;;7.83;;
4642;SDS011;2334;48.710;9.622;2023-02-15T12:59:54;16.50;;;7.50;;
4642;SDS011;2334;48.710;9.622;2023-02-15T13:02:25;14.13;;;7.10;;
4642;SDS011;2334;48.710;9.622;2023-02-15T13:04:57;11.10;;;6.27;;
4642;SDS011;2334;48.710;9.622;2023-02-15T13:07:35;10.60;;;6.67;;
4642;SDS011;2334;48.710;9.622;2023-02-15T13:10:03;12.77;;;7.10;;
4642;SDS011;2334;48.710;9.622;2023-02-15T13:12:46;9.97;;;5.80;;
4642;SDS011;2334;48.710;9.622;2023-02-15T13:15:22;11.90;;;7.90;;
4642;SDS011;2334;48.710;9.622;2023-02-15T13:17:52;12.23;;;5.97;;
4642;SDS011;2334;48.710;9.622;2023-02-15T13:20:21;10.70;;;6.63;;
4642;SDS011;2334;48.710;9.622;2023-02-15T13:22:52;12.33;;;6.77;;
4642;SDS011;2334;48.710;9.622;2023-02-15T13:25:24;13.50;;;7.13;;
4642;SDS011;2334;48.710;9.622;2023-02-15T13:27:54;14.90;;;6.23;;
4642;SDS011;2334;48.710;9.622;2023-02-15T13:30:23;11.80;;;6.57;;
4642;SDS011;2334;48.710;9.622;2023-02-15T13:32:54;11.80;;;6.70;;
4642;SDS011;2334;48.710;9.622;2023-02-15T13:35:24;14.33;;;6.50;;
4642;SDS011;2334;48.710;9.622;2023-02-15T13:37:59;10.73;;;6.07;;
4642;SDS011;2334;48.710;9.622;2023-02-15T13:40:36;9.97;;;6.77;;
4642;SDS011;2334;48.710;9.622;2023-02-15T13:43:12;10.80;;;6.17;;
4642;SDS011;2334;48.710;9.622;2023-02-15T13:45:54;15.73;;;8.37;;
4642;SDS011;2334;48.710;9.622;2023-02-15T13:48:33;20.07;;;7.87;;
4642;SDS011;2334;48.710;9.622;2023-02-15T13:51:09;13.23;;;6.97;;
4642;SDS011;2334;48.710;9.622;2023-02-15T13:53:56;9.37;;;6.60;;
4642;SDS011;2334;48.710;9.622;2023-02-15T13:56:32;13.00;;;6.73;;
4642;SDS011;2334;48.710;9.622;2023-02-15T13:59:15;11.27;;;6.37;;
4642;SDS011;2334;48.710;9.622;2023-02-15T14:01:55;14.70;;;6.90;;
4642;SDS011;2334;48.710;9.622;2023-02-15T14:04:27;13.13;;;7.23;;
4642;SDS011;2334;48.710;9.622;2023-02-15T14:07:18;13.33;;;7.43;;
4642;SDS011;2334;48.710;9.622;2023-02-15T14:10:02;13.20;;;7.07;;
4642;SDS011;2334;48.710;9.622;2023-02-15T14:12:47;11.90;;;6.40;;
4642;SDS011;2334;48.710;9.622;2023-02-15T14:15:30;14.43;;;6.77;;
4642;SDS011;2334;48.710;9.622;2023-02-15T14:18:07;11.23;;;6.80;;
4642;SDS011;2334;48.710;9.622;2023-02-15T14:20:49;9.40;;;5.90;;
4642;SDS011;2334;48.710;9.622;2023-02-15T14:23:30;10.80;;;5.80;;
4642;SDS011;2334;48.710;9.622;2023-02-15T14:26:14;12.03;;;6.27;;
4642;SDS011;2334;48.710;9.622;2023-02-15T14:28:49;13.17;;;7.90;;
4642;SDS011;2334;48.710;9.622;2023-02-15T14:31:25;13.93;;;7.20;;
4642;SDS011;2334;48.710;9.622;2023-02-15T14:33:56;11.73;;;6.17;;
4642;SDS011;2334;48.710;9.622;2023-02-15T14:36:24;13.37;;;7.10;;
4642;SDS011;2334;48.710;9.622;2023-02-15T14:38:57;10.80;;;5.67;;
4642;SDS011;2334;48.710;9.622;2023-02-15T14:41:35;12.37;;;6.27;;
4642;SDS011;2334;48.710;9.622;2023-02-15T14:44:08;10.30;;;5.90;;
4642;SDS011;2334;48.710;9.622;2023-02-15T14:46:42;11.23;;;6.03;;
4642;SDS011;2334;48.710;9.622;2023-02-15T14:49:17;12.13;;;6.77;;
4642;SDS011;2334;48.710;9.622;2023-02-15T14:51:56;9.50;;;5.67;;
4642;SDS011;2334;48.710;9.622;2023-02-15T14:57:24;10.73;;;4.87;;
4642;SDS011;2334;48.710;9.622;2023-02-15T14:59:59;11.40;;;6.13;;
4642;SDS011;2334;48.710;9.622;2023-02-15T15:02:40;13.23;;;5.50;;
4642;SDS011;2334;48.710;9.622;2023-02-15T15:05:12;7.90;;;5.30;;
4642;SDS011;2334;48.710;9.622;2023-02-15T15:07:44;8.20;;;5.43;;
4642;SDS011;2334;48.710;9.622;2023-02-15T15:18:55;8.57;;;4.17;;
4642;SDS011;2334;48.710;9.622;2023-02-15T15:39:29;11.20;;;5.57;;
4642;SDS011;2334;48.710;9.622;2023-02-15T15:42:29;13.63;;;5.23;;
4642;SDS011;2334;48.710;9.622;2023-02-15T15:45:08;8.77;;;4.90;;
4642;SDS011;2334;48.710;9.622;2023-02-15T15:48:17;7.97;;;4.43;;
4642;SDS011;2334;48.710;9.622;2023-02-15T15:50:57;8.40;;;5.50;;
4642;SDS011;2334;48.710;9.622;2023-02-15T15:53:26;8.30;;;5.27;;
4642;SDS011;2334;48.710;9.622;2023-02-15T15:55:57;12.47;;;6.70;;
4642;SDS011;2334;48.710;9.622;2023-02-15T15:58:27;11.00;;;5.70;;
4642;SDS011;2334;48.710;9.622;2023-02-15T16:00:57;10.80;;;5.80;;
4642;SDS011;2334;48.710;9.622;2023-02-15T16:03:30;10.93;;;6.23;;